sensor_id;sensor_type;location;lat;lon;timestamp;P1;durP1;ratioP1;P2;durP2;ratioP2
4738;SDS011;2383;48.632;10.156;2023-06-05T00:00:02;4.18;;;3.28;;
4738;SDS011;2383;48.632;10.156;2023-06-05T00:04:12;6.90;;;3.65;;
4738;SDS011;2383;48.632;10.156;2023-06-05T00:08:14;5.40;;;3.60;;
4738;SDS011;2383;48.632;10.156;2023-06-05T00:12:18;6.20;;;3.83;;
4738;SDS011;2383;48.632;10.156;2023-06-05T00:16:20;5.40;;;3.55;;
4738;SDS011;2383;48.632;10.156;2023-06-05T00:20:22;6.13;;;3.00;;
4738;SDS011;2383;48.632;10.156;2023-06-05T00:24:25;5.97;;;3.28;;
4738;SDS011;2383;48.632;10.156;2023-06-05T00:28:27;4.47;;;3.53;;
4738;SDS011;2383;48.632;10.156;2023-06-05T00:32:29;8.57;;;3.50;;
4738;SDS011;2383;48.632;10.156;2023-06-05T00:36:31;4.28;;;3.08;;
4738;SDS011;2383;48.632;10.156;2023-06-05T00:40:35;10.70;;;3.42;;
4738;SDS011;2383;48.632;10.156;2023-06-05T00:44:37;6.20;;;4.03;;
4738;SDS011;2383;48.632;10.156;2023-06-05T00:48:40;4.60;;;3.58;;
4738;SDS011;2383;48.632;10.156;2023-06-05T00:52:44;6.38;;;3.50;;
4738;SDS011;2383;48.632;10.156;2023-06-05T00:56:47;4.72;;;3.13;;
4738;SDS011;2383;48.632;10.156;2023-06-05T01:00:50;4.80;;;3.45;;
4738;SDS011;2383;48.632;10.156;2023-06-05T01:04:53;4.45;;;3.65;;
4738;SDS011;2383;48.632;10.156;2023-06-05T01:08:58;4.50;;;3.45;;
4738;SDS011;2383;48.632;10.156;2023-06-05T01:17:02;5.45;;;3.70;;
4738;SDS011;2383;48.632;10.156;2023-06-05T01:21:12;4.18;;;3.70;;
4738;SDS011;2383;48.632;10.156;2023-06-05T01:25:15;5.32;;;3.85;;
4738;SDS011;2383;48.632;10.156;2023-06-05T01:29:23;4.15;;;3.63;;
4738;SDS011;2383;48.632;10.156;2023-06-05T01:33:51;4.22;;;3.33;;
4738;SDS011;2383;48.632;10.156;2023-06-05T01:38:03;4.32;;;3.70;;
4738;SDS011;2383;48.632;10.156;2023-06-05T01:42:07;5.78;;;3.20;;
4738;SDS011;2383;48.632;10.156;2023-06-05T01:46:11;5.22;;;3.83;;
4738;SDS011;2383;48.632;10.156;2023-06-05T01:50:16;5.95;;;3.97;;
4738;SDS011;2383;48.632;10.156;2023-06-05T01:54:19;6.40;;;3.90;;
4738;SDS011;2383;48.632;10.156;2023-06-05T01:58:25;6.32;;;3.95;;
4738;SDS011;2383;48.632;10.156;2023-06-05T02:02:27;5.20;;;3.95;;
4738;SDS011;2383;48.632;10.156;2023-06-05T02:06:33;7.63;;;4.03;;
4738;SDS011;2383;48.632;10.156;2023-06-05T02:10:46;6.72;;;3.72;;
4738;SDS011;2383;48.632;10.156;2023-06-05T02:14:49;5.97;;;3.35;;
4738;SDS011;2383;48.632;10.156;2023-06-05T02:18:52;7.30;;;3.83;;
4738;SDS011;2383;48.632;10.156;2023-06-05T02:22:54;6.13;;;3.63;;
4738;SDS011;2383;48.632;10.156;2023-06-05T02:26:56;7.10;;;3.78;;
4738;SDS011;2383;48.632;10.156;2023-06-05T02:30:58;5.18;;;3.78;;
4738;SDS011;2383;48.632;10.156;2023-06-05T02:35:01;6.30;;;4.20;;
4738;SDS011;2383;48.632;10.156;2023-06-05T02:39:06;4.60;;;3.63;;
4738;SDS011;2383;48.632;10.156;2023-06-05T02:43:08;6.00;;;4.30;;
4738;SDS011;2383;48.632;10.156;2023-06-05T02:47:12;6.88;;;3.50;;
4738;SDS011;2383;48.632;10.156;2023-06-05T02:51:15;6.45;;;4.15;;
4738;SDS011;2383;48.632;10.156;2023-06-05T02:55:19;4.32;;;3.50;;
4738;SDS011;2383;48.632;10.156;2023-06-05T02:59:23;10.95;;;4.07;;
4738;SDS011;2383;48.632;10.156;2023-06-05T03:03:28;9.52;;;4.07;;
4738;SDS011;2383;48.632;10.156;2023-06-05T03:07:31;5.03;;;3.50;;
4738;SDS011;2383;48.632;10.156;2023-06-05T03:11:38;7.10;;;3.60;;
4738;SDS011;2383;48.632;10.156;2023-06-05T03:15:42;5.78;;;4.15;;
4738;SDS011;2383;48.632;10.156;2023-06-05T03:19:49;5.95;;;3.88;;
4738;SDS011;2383;48.632;10.156;2023-06-05T03:23:52;5.18;;;3.50;;
4738;SDS011;2383;48.632;10.156;2023-06-05T03:27:54;4.95;;;3.75;;
4738;SDS011;2383;48.632;10.156;2023-06-05T03:31:59;5.78;;;4.05;;
4738;SDS011;2383;48.632;10.156;2023-06-05T03:36:03;9.07;;;4.40;;
4738;SDS011;2383;48.632;10.156;2023-06-05T03:40:07;7.32;;;4.05;;
4738;SDS011;2383;48.632;10.156;2023-06-05T03:44:11;5.38;;;3.65;;
4738;SDS011;2383;48.632;10.156;2023-06-05T03:48:14;5.93;;;3.80;;
4738;SDS011;2383;48.632;10.156;2023-06-05T03:52:17;5.90;;;4.03;;
4738;SDS011;2383;48.632;10.156;2023-06-05T03:56:28;6.82;;;3.72;;
4738;SDS011;2383;48.632;10.156;2023-06-05T04:00:43;7.35;;;4.22;;
4738;SDS011;2383;48.632;10.156;2023-06-05T04:04:47;7.80;;;3.85;;
4738;SDS011;2383;48.632;10.156;2023-06-05T04:08:52;4.93;;;3.55;;
4738;SDS011;2383;48.632;10.156;2023-06-05T04:12:54;8.48;;;4.32;;
4738;SDS011;2383;48.632;10.156;2023-06-05T04:16:56;5.00;;;3.87;;
4738;SDS011;2383;48.632;10.156;2023-06-05T04:21:00;7.75;;;3.85;;
4738;SDS011;2383;48.632;10.156;2023-06-05T04:25:03;4.18;;;3.72;;
4738;SDS011;2383;48.632;10.156;2023-06-05T04:29:06;6.68;;;4.28;;
4738;SDS011;2383;48.632;10.156;2023-06-05T04:33:14;6.82;;;4.50;;
4738;SDS011;2383;48.632;10.156;2023-06-05T04:37:17;8.98;;;4.50;;
4738;SDS011;2383;48.632;10.156;2023-06-05T04:41:19;6.30;;;4.30;;
4738;SDS011;2383;48.632;10.156;2023-06-05T04:45:24;6.65;;;4.03;;
4738;SDS011;2383;48.632;10.156;2023-06-05T04:49:27;9.55;;;4.53;;
4738;SDS011;2383;48.632;10.156;2023-06-05T04:53:31;12.82;;;4.38;;
4738;SDS011;2383;48.632;10.156;2023-06-05T04:57:35;8.45;;;4.47;;
4738;SDS011;2383;48.632;10.156;2023-06-05T05:01:39;14.13;;;4.72;;
4738;SDS011;2383;48.632;10.156;2023-06-05T05:05:44;7.32;;;4.88;;
4738;SDS011;2383;48.632;10.156;2023-06-05T05:09:46;14.35;;;4.20;;
4738;SDS011;2383;48.632;10.156;2023-06-05T05:13:50;9.13;;;4.75;;
4738;SDS011;2383;48.632;10.156;2023-06-05T05:17:52;8.63;;;4.50;;
4738;SDS011;2383;48.632;10.156;2023-06-05T05:21:54;8.15;;;4.30;;
4738;SDS011;2383;48.632;10.156;2023-06-05T05:25:57;13.48;;;4.40;;
4738;SDS011;2383;48.632;10.156;2023-06-05T05:29:59;11.63;;;4.43;;
4738;SDS011;2383;48.632;10.156;2023-06-05T05:34:01;9.80;;;4.18;;
4738;SDS011;2383;48.632;10.156;2023-06-05T05:38:04;9.30;;;4.03;;
4738;SDS011;2383;48.632;10.156;2023-06-05T05:42:06;11.88;;;4.20;;
4738;SDS011;2383;48.632;10.156;2023-06-05T05:46:08;7.30;;;4.15;;
4738;SDS011;2383;48.632;10.156;2023-06-05T05:50:10;12.43;;;4.35;;
4738;SDS011;2383;48.632;10.156;2023-06-05T05:54:12;8.55;;;4.68;;
4738;SDS011;2383;48.632;10.156;2023-06-05T05:58:14;11.00;;;4.30;;
4738;SDS011;2383;48.632;10.156;2023-06-05T06:02:17;8.40;;;4.15;;
4738;SDS011;2383;48.632;10.156;2023-06-05T06:06:20;14.23;;;4.40;;
4738;SDS011;2383;48.632;10.156;2023-06-05T06:10:22;10.77;;;4.00;;
4738;SDS011;2383;48.632;10.156;2023-06-05T06:14:24;12.57;;;4.20;;
4738;SDS011;2383;48.632;10.156;2023-06-05T06:18:26;7.70;;;4.28;;
4738;SDS011;2383;48.632;10.156;2023-06-05T06:22:28;9.40;;;4.85;;
4738;SDS011;2383;48.632;10.156;2023-06-05T06:26:30;12.25;;;4.38;;
4738;SDS011;2383;48.632;10.156;2023-06-05T06:30:33;7.88;;;4.30;;
4738;SDS011;2383;48.632;10.156;2023-06-05T06:34:37;10.27;;;4.88;;
4738;SDS011;2383;48.632;10.156;2023-06-05T06:38:39;11.38;;;4.35;;
4738;SDS011;2383;48.632;10.156;2023-06-05T06:42:41;7.43;;;4.03;;
4738;SDS011;2383;48.632;10.156;2023-06-05T06:47:03;5.38;;;4.15;;
4738;SDS011;2383;48.632;10.156;2023-06-05T06:51:05;6.15;;;4.13;;
4738;SDS011;2383;48.632;10.156;2023-06-05T06:55:08;9.77;;;4.63;;
4738;SDS011;2383;48.632;10.156;2023-06-05T06:59:11;6.07;;;4.30;;
4738;SDS011;2383;48.632;10.156;2023-06-05T07:03:14;9.40;;;4.57;;
4738;SDS011;2383;48.632;10.156;2023-06-05T07:07:17;7.95;;;4.47;;
4738;SDS011;2383;48.632;10.156;2023-06-05T07:11:19;7.22;;;3.97;;
4738;SDS011;2383;48.632;10.156;2023-06-05T07:15:21;9.27;;;4.20;;
4738;SDS011;2383;48.632;10.156;2023-06-05T07:19:24;11.35;;;5.40;;
4738;SDS011;2383;48.632;10.156;2023-06-05T07:23:27;6.90;;;4.80;;
4738;SDS011;2383;48.632;10.156;2023-06-05T07:27:29;5.90;;;4.63;;
4738;SDS011;2383;48.632;10.156;2023-06-05T07:31:32;7.53;;;5.10;;
4738;SDS011;2383;48.632;10.156;2023-06-05T07:35:35;8.85;;;5.30;;
4738;SDS011;2383;48.632;10.156;2023-06-05T07:39:37;9.07;;;5.50;;
4738;SDS011;2383;48.632;10.156;2023-06-05T07:43:40;8.25;;;4.95;;
4738;SDS011;2383;48.632;10.156;2023-06-05T07:47:43;8.07;;;5.57;;
4738;SDS011;2383;48.632;10.156;2023-06-05T07:51:46;6.45;;;5.03;;
4738;SDS011;2383;48.632;10.156;2023-06-05T07:55:50;9.18;;;5.10;;
4738;SDS011;2383;48.632;10.156;2023-06-05T07:59:53;7.22;;;4.53;;
4738;SDS011;2383;48.632;10.156;2023-06-05T08:03:56;6.03;;;4.50;;
4738;SDS011;2383;48.632;10.156;2023-06-05T08:07:59;7.57;;;4.60;;
4738;SDS011;2383;48.632;10.156;2023-06-05T08:12:01;9.60;;;4.85;;
4738;SDS011;2383;48.632;10.156;2023-06-05T08:16:04;5.70;;;4.25;;
4738;SDS011;2383;48.632;10.156;2023-06-05T08:20:07;7.72;;;4.88;;
4738;SDS011;2383;48.632;10.156;2023-06-05T08:24:12;9.18;;;4.43;;
4738;SDS011;2383;48.632;10.156;2023-06-05T08:28:14;12.65;;;4.82;;
4738;SDS011;2383;48.632;10.156;2023-06-05T08:32:17;7.63;;;4.43;;
4738;SDS011;2383;48.632;10.156;2023-06-05T08:36:21;7.82;;;5.07;;
4738;SDS011;2383;48.632;10.156;2023-06-05T08:40:26;6.22;;;4.60;;
4738;SDS011;2383;48.632;10.156;2023-06-05T08:44:29;7.20;;;3.85;;
4738;SDS011;2383;48.632;10.156;2023-06-05T08:48:32;6.35;;;3.90;;
4738;SDS011;2383;48.632;10.156;2023-06-05T08:52:56;6.72;;;4.20;;
4738;SDS011;2383;48.632;10.156;2023-06-05T08:57:01;9.68;;;5.30;;
4738;SDS011;2383;48.632;10.156;2023-06-05T09:01:04;4.80;;;4.15;;
4738;SDS011;2383;48.632;10.156;2023-06-05T09:05:07;11.63;;;4.07;;
4738;SDS011;2383;48.632;10.156;2023-06-05T09:09:10;9.38;;;3.92;;
4738;SDS011;2383;48.632;10.156;2023-06-05T09:13:12;8.98;;;4.10;;
4738;SDS011;2383;48.632;10.156;2023-06-05T09:17:14;5.65;;;3.70;;
4738;SDS011;2383;48.632;10.156;2023-06-05T09:21:18;6.88;;;3.90;;
4738;SDS011;2383;48.632;10.156;2023-06-05T09:25:20;6.90;;;3.67;;
4738;SDS011;2383;48.632;10.156;2023-06-05T09:29:26;6.60;;;3.55;;
4738;SDS011;2383;48.632;10.156;2023-06-05T09:33:32;5.32;;;3.70;;
4738;SDS011;2383;48.632;10.156;2023-06-05T09:37:36;5.22;;;3.70;;
4738;SDS011;2383;48.632;10.156;2023-06-05T09:41:42;6.03;;;3.53;;
4738;SDS011;2383;48.632;10.156;2023-06-05T09:45:48;6.05;;;3.28;;
4738;SDS011;2383;48.632;10.156;2023-06-05T09:49:50;8.07;;;3.70;;
4738;SDS011;2383;48.632;10.156;2023-06-05T09:53:53;5.65;;;3.55;;
4738;SDS011;2383;48.632;10.156;2023-06-05T09:57:56;8.52;;;3.65;;
4738;SDS011;2383;48.632;10.156;2023-06-05T10:02:02;8.30;;;4.05;;
4738;SDS011;2383;48.632;10.156;2023-06-05T10:06:06;5.10;;;3.10;;
4738;SDS011;2383;48.632;10.156;2023-06-05T10:10:20;6.82;;;4.13;;
4738;SDS011;2383;48.632;10.156;2023-06-05T10:14:23;6.47;;;3.78;;
4738;SDS011;2383;48.632;10.156;2023-06-05T10:18:26;5.72;;;3.50;;
4738;SDS011;2383;48.632;10.156;2023-06-05T10:22:28;5.70;;;4.10;;
4738;SDS011;2383;48.632;10.156;2023-06-05T10:39:57;7.53;;;3.90;;
4738;SDS011;2383;48.632;10.156;2023-06-05T10:44:00;7.57;;;4.10;;
4738;SDS011;2383;48.632;10.156;2023-06-05T10:48:02;5.78;;;3.92;;
4738;SDS011;2383;48.632;10.156;2023-06-05T10:52:04;5.35;;;4.13;;
4738;SDS011;2383;48.632;10.156;2023-06-05T10:56:06;7.18;;;3.72;;
4738;SDS011;2383;48.632;10.156;2023-06-05T11:00:09;8.00;;;4.30;;
4738;SDS011;2383;48.632;10.156;2023-06-05T11:04:13;5.32;;;4.03;;
4738;SDS011;2383;48.632;10.156;2023-06-05T11:08:15;6.72;;;4.43;;
4738;SDS011;2383;48.632;10.156;2023-06-05T11:12:19;5.85;;;4.35;;
4738;SDS011;2383;48.632;10.156;2023-06-05T11:16:40;11.63;;;5.20;;
4738;SDS011;2383;48.632;10.156;2023-06-05T11:24:44;7.25;;;4.15;;
4738;SDS011;2383;48.632;10.156;2023-06-05T11:28:46;7.78;;;3.78;;
4738;SDS011;2383;48.632;10.156;2023-06-05T11:32:49;7.13;;;3.92;;
4738;SDS011;2383;48.632;10.156;2023-06-05T11:37:14;6.25;;;4.15;;
4738;SDS011;2383;48.632;10.156;2023-06-05T11:41:19;5.43;;;4.05;;
4738;SDS011;2383;48.632;10.156;2023-06-05T11:45:21;8.55;;;4.28;;
4738;SDS011;2383;48.632;10.156;2023-06-05T11:49:24;5.47;;;3.88;;
4738;SDS011;2383;48.632;10.156;2023-06-05T11:53:29;5.35;;;3.97;;
4738;SDS011;2383;48.632;10.156;2023-06-05T11:57:41;8.70;;;3.95;;
4738;SDS011;2383;48.632;10.156;2023-06-05T12:01:52;6.65;;;4.30;;
4738;SDS011;2383;48.632;10.156;2023-06-05T12:05:56;4.80;;;4.30;;
4738;SDS011;2383;48.632;10.156;2023-06-05T12:09:59;5.43;;;3.53;;
4738;SDS011;2383;48.632;10.156;2023-06-05T12:14:01;6.93;;;4.20;;
4738;SDS011;2383;48.632;10.156;2023-06-05T12:18:03;5.13;;;3.88;;
4738;SDS011;2383;48.632;10.156;2023-06-05T12:22:06;8.52;;;4.30;;
4738;SDS011;2383;48.632;10.156;2023-06-05T12:26:11;5.80;;;4.22;;
4738;SDS011;2383;48.632;10.156;2023-06-05T12:30:13;7.38;;;3.92;;
4738;SDS011;2383;48.632;10.156;2023-06-05T12:34:17;6.32;;;4.25;;
4738;SDS011;2383;48.632;10.156;2023-06-05T12:38:20;4.20;;;3.70;;
4738;SDS011;2383;48.632;10.156;2023-06-05T12:42:22;4.78;;;4.18;;
4738;SDS011;2383;48.632;10.156;2023-06-05T12:46:24;6.18;;;4.43;;
4738;SDS011;2383;48.632;10.156;2023-06-05T12:50:26;4.72;;;4.20;;
4738;SDS011;2383;48.632;10.156;2023-06-05T12:54:29;6.03;;;3.85;;
4738;SDS011;2383;48.632;10.156;2023-06-05T12:58:32;9.35;;;3.70;;
4738;SDS011;2383;48.632;10.156;2023-06-05T13:02:34;6.60;;;4.22;;
4738;SDS011;2383;48.632;10.156;2023-06-05T13:06:38;6.68;;;3.50;;
4738;SDS011;2383;48.632;10.156;2023-06-05T13:10:41;4.82;;;4.00;;
4738;SDS011;2383;48.632;10.156;2023-06-05T13:14:43;9.63;;;3.92;;
4738;SDS011;2383;48.632;10.156;2023-06-05T13:18:45;6.78;;;4.30;;
4738;SDS011;2383;48.632;10.156;2023-06-05T13:22:47;8.27;;;4.05;;
4738;SDS011;2383;48.632;10.156;2023-06-05T13:26:49;5.75;;;4.00;;
4738;SDS011;2383;48.632;10.156;2023-06-05T13:30:52;4.22;;;3.83;;
4738;SDS011;2383;48.632;10.156;2023-06-05T13:34:55;4.40;;;4.00;;
4738;SDS011;2383;48.632;10.156;2023-06-05T13:38:58;13.60;;;5.55;;
4738;SDS011;2383;48.632;10.156;2023-06-05T13:43:01;4.85;;;4.22;;
4738;SDS011;2383;48.632;10.156;2023-06-05T13:47:03;8.82;;;4.65;;
4738;SDS011;2383;48.632;10.156;2023-06-05T13:51:05;7.30;;;4.47;;
4738;SDS011;2383;48.632;10.156;2023-06-05T13:55:08;6.05;;;4.20;;
4738;SDS011;2383;48.632;10.156;2023-06-05T13:59:10;9.45;;;4.03;;
4738;SDS011;2383;48.632;10.156;2023-06-05T14:03:12;7.28;;;4.50;;
4738;SDS011;2383;48.632;10.156;2023-06-05T14:07:14;9.70;;;4.65;;
4738;SDS011;2383;48.632;10.156;2023-06-05T14:11:16;5.53;;;4.15;;
4738;SDS011;2383;48.632;10.156;2023-06-05T14:15:18;5.63;;;4.40;;
4738;SDS011;2383;48.632;10.156;2023-06-05T14:19:21;6.40;;;4.40;;
4738;SDS011;2383;48.632;10.156;2023-06-05T14:23:23;8.57;;;4.10;;
4738;SDS011;2383;48.632;10.156;2023-06-05T14:27:26;5.57;;;3.90;;
4738;SDS011;2383;48.632;10.156;2023-06-05T14:31:28;5.90;;;3.90;;
4738;SDS011;2383;48.632;10.156;2023-06-05T14:35:31;6.78;;;3.97;;
4738;SDS011;2383;48.632;10.156;2023-06-05T14:39:33;5.43;;;3.97;;
4738;SDS011;2383;48.632;10.156;2023-06-05T14:43:35;5.32;;;4.03;;
4738;SDS011;2383;48.632;10.156;2023-06-05T14:47:37;7.63;;;3.92;;
4738;SDS011;2383;48.632;10.156;2023-06-05T14:51:40;10.93;;;4.00;;
4738;SDS011;2383;48.632;10.156;2023-06-05T14:55:42;4.82;;;4.32;;
4738;SDS011;2383;48.632;10.156;2023-06-05T14:59:44;9.85;;;3.97;;
4738;SDS011;2383;48.632;10.156;2023-06-05T15:03:46;7.75;;;3.80;;
4738;SDS011;2383;48.632;10.156;2023-06-05T15:07:49;8.68;;;4.55;;
4738;SDS011;2383;48.632;10.156;2023-06-05T15:11:51;6.65;;;4.10;;
4738;SDS011;2383;48.632;10.156;2023-06-05T15:15:57;4.70;;;3.88;;
4738;SDS011;2383;48.632;10.156;2023-06-05T15:20:01;6.15;;;3.97;;
4738;SDS011;2383;48.632;10.156;2023-06-05T15:24:07;5.18;;;3.90;;
4738;SDS011;2383;48.632;10.156;2023-06-05T15:28:09;6.50;;;4.35;;
4738;SDS011;2383;48.632;10.156;2023-06-05T15:32:13;5.55;;;4.55;;
4738;SDS011;2383;48.632;10.156;2023-06-05T15:36:21;10.45;;;4.07;;
4738;SDS011;2383;48.632;10.156;2023-06-05T15:40:23;6.40;;;4.30;;
4738;SDS011;2383;48.632;10.156;2023-06-05T15:44:25;8.73;;;3.97;;
4738;SDS011;2383;48.632;10.156;2023-06-05T15:48:28;6.00;;;4.00;;
4738;SDS011;2383;48.632;10.156;2023-06-05T15:52:30;6.57;;;4.28;;
4738;SDS011;2383;48.632;10.156;2023-06-05T15:56:36;7.57;;;4.60;;
4738;SDS011;2383;48.632;10.156;2023-06-05T16:00:38;5.45;;;4.35;;
4738;SDS011;2383;48.632;10.156;2023-06-05T16:04:41;7.25;;;4.40;;
4738;SDS011;2383;48.632;10.156;2023-06-05T16:08:43;7.53;;;4.30;;
4738;SDS011;2383;48.632;10.156;2023-06-05T16:12:45;5.93;;;4.32;;
4738;SDS011;2383;48.632;10.156;2023-06-05T16:16:48;5.50;;;4.00;;
4738;SDS011;2383;48.632;10.156;2023-06-05T16:20:51;5.07;;;4.40;;
4738;SDS011;2383;48.632;10.156;2023-06-05T16:24:53;4.78;;;4.03;;
4738;SDS011;2383;48.632;10.156;2023-06-05T16:28:55;6.25;;;3.70;;
4738;SDS011;2383;48.632;10.156;2023-06-05T16:32:57;5.93;;;4.10;;
4738;SDS011;2383;48.632;10.156;2023-06-05T16:36:59;4.30;;;3.90;;
4738;SDS011;2383;48.632;10.156;2023-06-05T16:41:02;6.72;;;3.95;;
4738;SDS011;2383;48.632;10.156;2023-06-05T16:45:04;4.80;;;3.92;;
4738;SDS011;2383;48.632;10.156;2023-06-05T16:49:07;4.85;;;3.97;;
4738;SDS011;2383;48.632;10.156;2023-06-05T16:53:10;6.20;;;4.18;;
4738;SDS011;2383;48.632;10.156;2023-06-05T16:57:12;4.65;;;3.70;;
4738;SDS011;2383;48.632;10.156;2023-06-05T17:01:14;14.85;;;9.25;;
4738;SDS011;2383;48.632;10.156;2023-06-05T17:05:19;8.40;;;4.28;;
4738;SDS011;2383;48.632;10.156;2023-06-05T17:09:22;13.60;;;4.53;;
4738;SDS011;2383;48.632;10.156;2023-06-05T17:13:28;5.85;;;3.65;;
4738;SDS011;2383;48.632;10.156;2023-06-05T17:17:30;12.50;;;4.00;;
4738;SDS011;2383;48.632;10.156;2023-06-05T17:21:32;7.50;;;4.30;;
4738;SDS011;2383;48.632;10.156;2023-06-05T17:25:34;6.57;;;4.13;;
4738;SDS011;2383;48.632;10.156;2023-06-05T17:29:37;10.68;;;4.28;;
4738;SDS011;2383;48.632;10.156;2023-06-05T17:33:39;7.38;;;4.13;;
4738;SDS011;2383;48.632;10.156;2023-06-05T17:37:42;9.52;;;4.63;;
4738;SDS011;2383;48.632;10.156;2023-06-05T17:41:44;6.75;;;4.32;;
4738;SDS011;2383;48.632;10.156;2023-06-05T17:45:46;8.13;;;4.40;;
4738;SDS011;2383;48.632;10.156;2023-06-05T17:49:49;6.65;;;3.88;;
4738;SDS011;2383;48.632;10.156;2023-06-05T17:53:51;7.43;;;3.97;;
4738;SDS011;2383;48.632;10.156;2023-06-05T17:57:54;5.75;;;3.95;;
4738;SDS011;2383;48.632;10.156;2023-06-05T18:01:58;5.43;;;3.75;;
4738;SDS011;2383;48.632;10.156;2023-06-05T18:06:01;6.80;;;4.45;;
4738;SDS011;2383;48.632;10.156;2023-06-05T18:10:03;4.38;;;3.97;;
4738;SDS011;2383;48.632;10.156;2023-06-05T18:14:06;4.78;;;3.90;;
4738;SDS011;2383;48.632;10.156;2023-06-05T18:18:08;4.65;;;3.80;;
4738;SDS011;2383;48.632;10.156;2023-06-05T18:22:11;4.45;;;3.90;;
4738;SDS011;2383;48.632;10.156;2023-06-05T18:26:13;6.07;;;3.65;;
4738;SDS011;2383;48.632;10.156;2023-06-05T18:30:19;7.25;;;3.78;;
4738;SDS011;2383;48.632;10.156;2023-06-05T18:34:21;5.15;;;3.83;;
4738;SDS011;2383;48.632;10.156;2023-06-05T18:38:24;6.20;;;3.25;;
4738;SDS011;2383;48.632;10.156;2023-06-05T18:42:26;6.65;;;2.70;;
4738;SDS011;2383;48.632;10.156;2023-06-05T18:46:28;11.02;;;2.80;;
4738;SDS011;2383;48.632;10.156;2023-06-05T18:50:30;5.30;;;2.75;;
4738;SDS011;2383;48.632;10.156;2023-06-05T18:54:32;3.65;;;2.55;;
4738;SDS011;2383;48.632;10.156;2023-06-05T18:58:34;5.50;;;2.88;;
4738;SDS011;2383;48.632;10.156;2023-06-05T19:02:37;2.80;;;2.42;;
4738;SDS011;2383;48.632;10.156;2023-06-05T19:06:39;5.13;;;2.53;;
4738;SDS011;2383;48.632;10.156;2023-06-05T19:10:42;6.80;;;2.60;;
4738;SDS011;2383;48.632;10.156;2023-06-05T19:14:44;3.75;;;2.35;;
4738;SDS011;2383;48.632;10.156;2023-06-05T19:18:46;5.10;;;2.55;;
4738;SDS011;2383;48.632;10.156;2023-06-05T19:22:48;10.38;;;2.70;;
4738;SDS011;2383;48.632;10.156;2023-06-05T19:26:50;3.15;;;2.40;;
4738;SDS011;2383;48.632;10.156;2023-06-05T19:30:52;2.58;;;2.38;;
4738;SDS011;2383;48.632;10.156;2023-06-05T19:34:54;3.28;;;2.13;;
4738;SDS011;2383;48.632;10.156;2023-06-05T19:38:57;2.42;;;2.22;;
4738;SDS011;2383;48.632;10.156;2023-06-05T19:42:59;3.40;;;1.77;;
4738;SDS011;2383;48.632;10.156;2023-06-05T19:47:01;2.35;;;1.80;;
4738;SDS011;2383;48.632;10.156;2023-06-05T19:51:04;3.55;;;1.85;;
4738;SDS011;2383;48.632;10.156;2023-06-05T19:55:06;2.00;;;1.85;;
4738;SDS011;2383;48.632;10.156;2023-06-05T19:59:08;4.22;;;1.70;;
4738;SDS011;2383;48.632;10.156;2023-06-05T20:03:11;1.60;;;1.50;;
4738;SDS011;2383;48.632;10.156;2023-06-05T20:07:13;2.08;;;1.60;;
4738;SDS011;2383;48.632;10.156;2023-06-05T20:11:15;1.60;;;1.50;;
4738;SDS011;2383;48.632;10.156;2023-06-05T20:15:17;1.27;;;1.17;;
4738;SDS011;2383;48.632;10.156;2023-06-05T20:19:19;6.57;;;1.20;;
4738;SDS011;2383;48.632;10.156;2023-06-05T20:23:21;1.88;;;1.33;;
4738;SDS011;2383;48.632;10.156;2023-06-05T20:27:23;1.48;;;1.33;;
4738;SDS011;2383;48.632;10.156;2023-06-05T20:31:25;2.70;;;1.30;;
4738;SDS011;2383;48.632;10.156;2023-06-05T20:35:28;1.33;;;1.23;;
4738;SDS011;2383;48.632;10.156;2023-06-05T20:39:31;1.40;;;1.30;;
4738;SDS011;2383;48.632;10.156;2023-06-05T20:43:33;1.33;;;1.20;;
4738;SDS011;2383;48.632;10.156;2023-06-05T20:47:36;2.08;;;1.48;;
4738;SDS011;2383;48.632;10.156;2023-06-05T20:51:41;1.75;;;1.60;;
4738;SDS011;2383;48.632;10.156;2023-06-05T20:55:43;1.40;;;1.30;;
4738;SDS011;2383;48.632;10.156;2023-06-05T20:59:46;1.50;;;1.40;;
4738;SDS011;2383;48.632;10.156;2023-06-05T21:03:49;1.50;;;1.40;;
4738;SDS011;2383;48.632;10.156;2023-06-05T21:07:51;1.40;;;1.30;;
4738;SDS011;2383;48.632;10.156;2023-06-05T21:11:53;4.45;;;1.58;;
4738;SDS011;2383;48.632;10.156;2023-06-05T21:15:55;3.47;;;1.70;;
4738;SDS011;2383;48.632;10.156;2023-06-05T21:19:57;1.90;;;1.80;;
4738;SDS011;2383;48.632;10.156;2023-06-05T21:23:59;2.75;;;1.40;;
4738;SDS011;2383;48.632;10.156;2023-06-05T21:28:02;2.05;;;1.65;;
4738;SDS011;2383;48.632;10.156;2023-06-05T21:32:05;2.10;;;1.90;;
4738;SDS011;2383;48.632;10.156;2023-06-05T21:36:10;2.63;;;1.80;;
4738;SDS011;2383;48.632;10.156;2023-06-05T21:40:13;1.75;;;1.60;;
4738;SDS011;2383;48.632;10.156;2023-06-05T21:44:16;3.22;;;2.10;;
4738;SDS011;2383;48.632;10.156;2023-06-05T21:48:22;2.95;;;1.95;;
4738;SDS011;2383;48.632;10.156;2023-06-05T21:52:26;7.72;;;2.13;;
4738;SDS011;2383;48.632;10.156;2023-06-05T21:56:29;2.10;;;1.90;;
4738;SDS011;2383;48.632;10.156;2023-06-05T22:00:32;2.20;;;2.00;;
4738;SDS011;2383;48.632;10.156;2023-06-05T22:04:34;3.15;;;2.03;;
4738;SDS011;2383;48.632;10.156;2023-06-05T22:08:36;2.45;;;2.15;;
4738;SDS011;2383;48.632;10.156;2023-06-05T22:12:38;3.47;;;2.08;;
4738;SDS011;2383;48.632;10.156;2023-06-05T22:16:43;2.50;;;2.30;;
4738;SDS011;2383;48.632;10.156;2023-06-05T22:20:45;2.40;;;2.20;;
4738;SDS011;2383;48.632;10.156;2023-06-05T22:24:47;3.58;;;2.50;;
4738;SDS011;2383;48.632;10.156;2023-06-05T22:28:50;2.78;;;2.15;;
4738;SDS011;2383;48.632;10.156;2023-06-05T22:32:52;3.30;;;2.13;;
4738;SDS011;2383;48.632;10.156;2023-06-05T22:36:54;2.65;;;2.33;;
4738;SDS011;2383;48.632;10.156;2023-06-05T22:41:04;2.75;;;2.42;;
4738;SDS011;2383;48.632;10.156;2023-06-05T22:45:08;2.33;;;2.13;;
4738;SDS011;2383;48.632;10.156;2023-06-05T22:49:10;3.85;;;2.50;;
4738;SDS011;2383;48.632;10.156;2023-06-05T22:53:13;3.03;;;2.40;;
4738;SDS011;2383;48.632;10.156;2023-06-05T22:57:16;2.80;;;2.35;;
4738;SDS011;2383;48.632;10.156;2023-06-05T23:01:18;2.75;;;2.40;;
4738;SDS011;2383;48.632;10.156;2023-06-05T23:05:23;3.25;;;2.35;;
4738;SDS011;2383;48.632;10.156;2023-06-05T23:09:25;2.97;;;2.40;;
4738;SDS011;2383;48.632;10.156;2023-06-05T23:13:27;2.83;;;2.33;;
4738;SDS011;2383;48.632;10.156;2023-06-05T23:17:29;2.53;;;2.30;;
4738;SDS011;2383;48.632;10.156;2023-06-05T23:21:31;3.00;;;2.70;;
4738;SDS011;2383;48.632;10.156;2023-06-05T23:25:34;2.90;;;2.60;;
4738;SDS011;2383;48.632;10.156;2023-06-05T23:29:40;2.58;;;2.28;;
4738;SDS011;2383;48.632;10.156;2023-06-05T23:33:42;4.88;;;2.78;;
4738;SDS011;2383;48.632;10.156;2023-06-05T23:37:45;2.60;;;2.40;;
4738;SDS011;2383;48.632;10.156;2023-06-05T23:41:47;3.55;;;2.47;;
4738;SDS011;2383;48.632;10.156;2023-06-05T23:45:51;4.82;;;2.78;;
4738;SDS011;2383;48.632;10.156;2023-06-05T23:49:53;3.83;;;2.58;;
4738;SDS011;2383;48.632;10.156;2023-06-05T23:53:55;2.90;;;2.60;;
4738;SDS011;2383;48.632;10.156;2023-06-05T23:57:58;2.72;;;2.50;;
